CA-0358 weather

CLOSED Ste-Anne-De-Sorel Airport
Quebec, Canada

Public forecast

Using degrees Celsius for public forecast. Weather courtesy of forecast.io.

METAR (pilot weather report)

Closest report is Trois-Rivières Airport, 21.3 nm (39.5 km) NE. Retrieved 2019/09/24 07:17 UTC (34 minutes ago):

CYRQ 240717Z AUTO 03008KT 9SM OVC008 14/13 A2957 RMK SLP016 DENSITY ALT 500FT

TAF (pilot weather forecast)

Closest forecast is Trois-Rivières Airport, 21.3 nm (39.5 km) NE. Retrieved 2019/09/24 08:00 UTC (0 seconds ago):

TAF CYRQ 240738Z 2408/2420 03008KT 3SM -DZ -SHRA BR OVC007 TEMPO 2408/2415 P6SM NSW SCT007 OVC020 FM241500 04008KT 5SM -DZ -SHRA BR OVC012 TEMPO 2415/2420 P6SM NSW SCT012 OVC025 RMK FCST BASED ON AUTO OBS. NXT FCST BY 241400Z